Arlington, TN

6:31 PM CDT on August 29, 2016 (GMT -0500)
Salem Road Ranches | | Change Station

Elev 400 ft 35.30 °N, 89.74 °W | Updated 55 seconds ago

Mostly Cloudy
Mostly Cloudy
82.9 °F
Feels Like 93 °F
N
0.0
Wind Variable Wind from NNE
Gusts 0.0 mph

Today
High -- | Low -- °F
--% Chance of Precip.
Yesterday
High -- | Low -- °F
Precip. -- in
Pressure 30.03 in
Visibility 10.0 miles
Clouds Few 6000 ft
Mostly Cloudy 25000 ft
Heat Index 93 °F
Dew Point 78 °F
Humidity 85%
Rainfall 0.00 in
Snow Depth Not available.
6:29 AM 7:29 PM
Waning Crescent, 6% visible
METAR KNQA 292250Z 07004KT 10SM FEW060 BKN250 32/26 A3003
Pressure 30.03 in
Visibility 10.0 miles
Clouds Few 6000 ft
Mostly Cloudy 25000 ft
Heat Index 93 °F
Dew Point 78 °F
Humidity 85%
Rainfall 0.00 in
Snow Depth Not available.
6:29 AM 7:29 PM
Waning Crescent, 6% visible
METAR KNQA 292250Z 07004KT 10SM FEW060 BKN250 32/26 A3003

10-Day Weather Forecast

Almanac

Astronomy

Aug. 29, 2016 Rise Set
Actual Time
Civil Twilight
Nautical Twilight
Astronomical Twilight
Moon
Length of Visible Light
Length of Day
Tomorrow will be .
, % of the Moon is Illuminated

Today's Extremes

State Highs State Lows

Community

WunderPhotos

Upload Photos

1,935,695 photos uploaded!

WunderBlog® & News

Nearby

Air Quality

  Air Quality AQ Index Pollutant
Not available.

Snow Depth

Station Depth Elevation

Earthquake Activity

City Distance Mag. Time & Date
Minimum magnitude displayed is 2.5.

Coastal Water Temperatures

Place Temperature

Stations

Nearby Weather Stations

Station Location Temp. Windchill Dew Point Humidity Wind Precip. Elev Updated Type
                   

Watches & Warnings

There are currently no watches in effect.